Back to top

Sheridan, WY weather

Sheridan County Airport, Sheridan, WY: 7/02/2020 10:53
Visibility10 statute milesclear sky
View 7-Day Forecast
Area Summary
Sky/CloudsSky Clear
Weather [last 24 hours]None
Pressure29.95 in.Hg (1014 hPa)
Dew Point44.1 °F (6.7 °C)
Relative Humidity 31 %
Temperature77 °F (25 °C)red thermometer
Reading TimeMinimum to Maximum Temperature
6-hr ending 7/2@05:5346 °F to 59 °F (7.8 °C to 15 °C)
6-hr ending 7/1@23:5355.9 °F to 82.9 °F (13.3 °C to 28.3 °C)
6-hr ending 7/1@17:5373 °F to 82.9 °F (22.8 °C to 28.3 °C)
6-hr ending 7/1@11:5344.1 °F to 73.9 °F (6.7 °C to 23.3 °C)
24-hr ending 7/2@00:5344.1 °F to 82.9 °F (6.7 °C to 28.3 °C)
Wind8.06 MPH (7 KT) green arrow pointing 180 degrees
Wind FromSouth (190 Degrees)
Twilight Begins04:49Sunshine Yesterday
Sunrise05:26N/A
Sunset20:59
Twilight Ends21:35
METARKSHR 021653Z AUTO 19007KT 10SM CLR 25/07 A2995 RMK AO2 SLP112 T02500067
Tags: